createdAt,value
2023-03-29T00:01:52.245Z,100721.63
2023-03-29T00:05:34.947Z,100720.46
2023-03-29T00:09:35.271Z,100729.16
2023-03-29T00:12:55.382Z,100724.19
2023-03-29T00:16:23.161Z,100727.97
2023-03-29T00:20:03.270Z,100728.02
2023-03-29T00:23:54.054Z,100727.37
2023-03-29T00:27:37.441Z,100724.30
2023-03-29T00:31:19.752Z,100724.35
2023-03-29T00:34:52.126Z,100720.99
2023-03-29T00:38:33.958Z,100723.35
2023-03-29T00:42:14.929Z,100720.71
2023-03-29T00:45:45.065Z,100723.20
2023-03-29T00:49:51.709Z,100720.92
2023-03-29T00:53:12.634Z,100724.47
2023-03-29T00:56:51.555Z,100725.39
2023-03-29T01:00:37.182Z,100725.14
2023-03-29T01:15:12.976Z,100728.92
2023-03-29T01:17:55.762Z,100726.80
2023-03-29T01:32:52.821Z,100723.86
2023-03-29T01:46:31.720Z,100726.29
2023-03-29T02:00:24.222Z,100734.95
2023-03-29T02:03:23.501Z,100734.02
2023-03-29T02:17:19.836Z,100737.14
2023-03-29T02:31:28.778Z,100744.58
2023-03-29T02:48:46.548Z,100740.31
2023-03-29T03:03:03.248Z,100742.30
2023-03-29T03:34:39.999Z,100753.83
2023-03-29T04:04:14.641Z,100759.80
2023-03-29T04:07:24.797Z,100763.55
2023-03-29T04:10:42.011Z,100772.69
2023-03-29T04:14:37.811Z,100773.23
2023-03-29T04:28:55.235Z,100784.39
2023-03-29T04:31:32.333Z,100785.85
2023-03-29T04:35:12.483Z,100785.92
2023-03-29T04:43:46.798Z,100790.42
2023-03-29T04:47:37.396Z,100790.52
2023-03-29T04:51:22.515Z,100786.80
2023-03-29T05:06:14.316Z,100793.17
2023-03-29T05:08:55.624Z,100794.98
2023-03-29T05:24:19.776Z,100792.41
2023-03-29T05:51:12.560Z,100804.05
2023-03-29T05:54:02.172Z,100810.66
2023-03-29T05:57:38.919Z,100814.13
2023-03-29T06:00:24.261Z,100818.59
2023-03-29T06:02:52.972Z,100814.50
2023-03-29T06:05:20.942Z,100816.67
2023-03-29T06:07:49.262Z,100817.41
2023-03-29T06:10:18.098Z,100820.95
2023-03-29T06:12:47.280Z,100824.76
2023-03-29T06:15:16.382Z,100823.95
2023-03-29T06:17:47.477Z,100822.86
2023-03-29T06:20:15.530Z,100821.73
2023-03-29T06:22:47.862Z,100818.64
2023-03-29T06:25:17.789Z,100820.89
2023-03-29T06:27:49.603Z,100822.67
2023-03-29T06:30:20.474Z,100824.18
2023-03-29T06:32:52.163Z,100828.52
2023-03-29T06:35:20.745Z,100830.36
2023-03-29T06:37:53.751Z,100833.70
2023-03-29T06:40:21.687Z,100836.34
2023-03-29T06:42:51.048Z,100839.92
2023-03-29T06:45:32.819Z,100837.63
2023-03-29T06:48:02.162Z,100842.12
2023-03-29T06:50:31.445Z,100840.55
2023-03-29T06:57:05.828Z,100844.48
2023-03-29T06:59:56.928Z,100846.93
2023-03-29T07:02:24.914Z,100848.55
2023-03-29T07:04:52.845Z,100846.02
2023-03-29T07:07:27.878Z,100842.29
2023-03-29T07:09:55.868Z,100841.15
2023-03-29T07:12:24.184Z,100843.23
2023-03-29T07:27:03.454Z,100841.33
2023-03-29T07:29:31.699Z,100841.80
2023-03-29T07:31:58.510Z,100841.20
2023-03-29T07:34:25.100Z,100839.41
2023-03-29T07:36:52.014Z,100839.12
2023-03-29T07:39:18.727Z,100838.13
2023-03-29T07:41:45.404Z,100842.63
2023-03-29T07:44:29.840Z,100839.56
2023-03-29T07:47:15.099Z,100842.94
2023-03-29T07:49:41.722Z,100844.20
2023-03-29T07:52:08.521Z,100844.48
2023-03-29T07:54:35.069Z,100840.39
2023-03-29T07:57:01.849Z,100841.98
2023-03-29T07:59:28.436Z,100839.41
2023-03-29T08:01:55.005Z,100840.17
2023-03-29T08:04:22.580Z,100838.81
2023-03-29T08:06:49.370Z,100838.15
2023-03-29T08:11:41.048Z,100839.96
2023-03-29T08:15:20.448Z,100831.57
2023-03-29T08:19:20.806Z,100826.80
2023-03-29T08:33:29.714Z,100827.16
2023-03-29T08:36:00.198Z,100819.58
2023-03-29T08:39:03.272Z,100821.46
2023-03-29T08:42:03.821Z,100816.77
2023-03-29T08:44:35.167Z,100814.27
2023-03-29T08:49:17.823Z,100812.59
2023-03-29T08:52:00.194Z,100813.83
2023-03-29T08:54:40.768Z,100811.39
2023-03-29T08:57:17.949Z,100807.83
2023-03-29T08:59:48.909Z,100809.91
2023-03-29T09:03:10.952Z,100811.19
2023-03-29T09:06:40.995Z,100810.31
2023-03-29T09:09:59.706Z,100807.95
2023-03-29T09:14:28.478Z,100809.82
2023-03-29T09:17:13.824Z,100804.53
2023-03-29T09:19:58.331Z,100801.63
2023-03-29T09:26:55.646Z,100795.99
2023-03-29T09:30:17.647Z,100800.20
2023-03-29T09:47:22.734Z,100792.58
2023-03-29T09:51:07.939Z,100784.42
2023-03-29T09:54:37.400Z,100784.88
2023-03-29T09:58:20.043Z,100780.73
2023-03-29T10:27:06.626Z,100782.00
2023-03-29T11:27:49.398Z,100749.70
2023-03-29T12:04:23.145Z,100720.59
2023-03-29T12:21:46.728Z,100705.55
2023-03-29T12:36:16.031Z,100692.17
2023-03-29T12:39:05.689Z,100689.29
2023-03-29T12:41:56.427Z,100686.81
2023-03-29T12:44:24.030Z,100691.08
2023-03-29T12:46:54.518Z,100700.42
2023-03-29T12:49:43.405Z,100694.17
2023-03-29T12:53:04.798Z,100686.33
2023-03-29T12:55:44.257Z,100679.98
2023-03-29T13:29:38.451Z,100669.64
2023-03-29T13:33:03.869Z,100672.56
2023-03-29T13:40:19.241Z,100659.80
2023-03-29T14:03:50.725Z,100649.52
2023-03-29T14:24:52.421Z,100632.70
2023-03-29T14:44:06.063Z,100623.05
2023-03-29T14:47:31.850Z,100629.53
2023-03-29T15:35:38.837Z,100593.91
2023-03-29T15:38:50.145Z,100588.65
2023-03-29T15:42:03.614Z,100586.77
2023-03-29T15:57:17.564Z,100584.98
2023-03-29T16:10:53.538Z,100569.34
2023-03-29T16:13:53.273Z,100559.13
2023-03-29T16:17:30.723Z,100554.88
2023-03-29T16:21:04.933Z,100556.56
2023-03-29T16:23:32.920Z,100555.70
2023-03-29T16:26:01.012Z,100553.62
2023-03-29T16:28:28.913Z,100550.11
2023-03-29T16:30:56.792Z,100548.84
2023-03-29T16:33:24.861Z,100548.89
2023-03-29T16:35:57.255Z,100542.05
2023-03-29T16:38:26.082Z,100539.02
2023-03-29T16:40:54.023Z,100541.14
2023-03-29T16:43:21.887Z,100535.95
2023-03-29T16:45:54.796Z,100537.52
2023-03-29T16:48:23.978Z,100531.20
2023-03-29T16:50:51.881Z,100527.35
2023-03-29T16:53:21.620Z,100526.16
2023-03-29T16:55:49.903Z,100523.11
2023-03-29T16:58:18.132Z,100522.40
2023-03-29T17:00:48.294Z,100519.81
2023-03-29T17:03:17.021Z,100518.59
2023-03-29T17:05:50.293Z,100518.52
2023-03-29T17:08:23.216Z,100518.79
2023-03-29T17:10:55.675Z,100519.63
2023-03-29T17:13:24.141Z,100516.69
2023-03-29T17:15:53.725Z,100516.15
2023-03-29T17:18:23.357Z,100517.21
2023-03-29T17:40:21.906Z,100517.80
2023-03-29T17:43:02.320Z,100518.68
2023-03-29T17:46:38.086Z,100522.81
2023-03-29T17:50:34.116Z,100521.28
2023-03-29T17:53:57.254Z,100518.09
2023-03-29T17:57:38.985Z,100523.56
2023-03-29T18:01:13.497Z,100528.71
2023-03-29T18:04:52.565Z,100535.15
2023-03-29T18:14:37.663Z,100529.06
2023-03-29T18:17:51.691Z,100527.69
2023-03-29T18:20:20.977Z,100530.19
2023-03-29T18:22:49.411Z,100534.33
2023-03-29T18:29:47.401Z,100524.52
2023-03-29T18:44:48.513Z,100524.77
2023-03-29T18:47:37.102Z,100524.69
2023-03-29T18:50:30.473Z,100515.82
2023-03-29T18:52:58.605Z,100517.26
2023-03-29T18:55:27.641Z,100515.30
2023-03-29T18:57:56.413Z,100514.70
2023-03-29T19:00:24.845Z,100519.54
2023-03-29T19:02:54.171Z,100520.21
2023-03-29T19:05:23.269Z,100525.39
2023-03-29T19:07:54.802Z,100529.64
2023-03-29T19:10:26.330Z,100532.17
2023-03-29T19:12:54.507Z,100528.91
2023-03-29T19:15:22.783Z,100526.84
2023-03-29T19:17:50.979Z,100521.80
2023-03-29T19:21:52.959Z,100517.53
2023-03-29T19:25:28.801Z,100514.67
2023-03-29T19:27:57.708Z,100515.20
2023-03-29T19:30:26.044Z,100521.02
2023-03-29T19:32:57.588Z,100519.09
2023-03-29T19:35:30.037Z,100518.07
2023-03-29T19:37:58.032Z,100521.48
2023-03-29T19:40:28.897Z,100520.42
2023-03-29T19:42:57.014Z,100517.67
2023-03-29T19:45:30.179Z,100516.64
2023-03-29T19:48:24.686Z,100516.55
2023-03-29T19:50:52.928Z,100512.77
2023-03-29T19:53:25.655Z,100508.55
2023-03-29T19:55:53.705Z,100504.39
2023-03-29T20:00:04.054Z,100500.83
2023-03-29T20:03:37.764Z,100496.73
2023-03-29T20:06:59.470Z,100492.48
2023-03-29T20:09:27.875Z,100490.63
2023-03-29T20:11:55.858Z,100489.30
2023-03-29T20:14:23.937Z,100480.77
2023-03-29T20:16:54.227Z,100480.56
2023-03-29T20:22:00.923Z,100469.57
2023-03-29T20:25:50.960Z,100463.70
2023-03-29T20:39:45.517Z,100454.36
2023-03-29T20:53:44.655Z,100444.39
2023-03-29T20:56:26.411Z,100442.33
2023-03-29T21:00:12.338Z,100439.89
2023-03-29T21:04:14.260Z,100443.65
2023-03-29T21:18:20.819Z,100428.29
2023-03-29T21:21:08.013Z,100430.13
2023-03-29T21:25:24.119Z,100432.40
2023-03-29T21:28:28.555Z,100429.62
2023-03-29T21:32:11.470Z,100425.75
2023-03-29T21:35:50.679Z,100425.48
2023-03-29T21:39:55.936Z,100423.14
2023-03-29T21:43:07.852Z,100415.23
2023-03-29T21:47:08.622Z,100415.02
2023-03-29T21:50:37.267Z,100414.30
2023-03-29T21:54:04.237Z,100412.73
2023-03-29T21:57:41.652Z,100409.92
2023-03-29T22:01:15.227Z,100403.81
2023-03-29T22:15:36.020Z,100392.76
2023-03-29T22:18:14.793Z,100390.08
2023-03-29T22:22:01.848Z,100386.30
2023-03-29T22:25:31.911Z,100380.20
2023-03-29T22:39:41.718Z,100372.11
2023-03-29T22:42:27.137Z,100368.73
2023-03-29T22:46:11.772Z,100369.38
2023-03-29T22:49:44.725Z,100363.76
2023-03-29T22:53:25.772Z,100361.33
2023-03-29T22:57:08.481Z,100360.23
2023-03-29T23:00:43.222Z,100356.70
2023-03-29T23:04:44.818Z,100352.14
2023-03-29T23:08:05.356Z,100353.23
2023-03-29T23:22:22.138Z,100341.80
2023-03-29T23:25:15.125Z,100333.55
2023-03-29T23:28:54.912Z,100328.17
2023-03-29T23:33:16.671Z,100326.05
2023-03-29T23:36:56.525Z,100327.67
2023-03-29T23:40:33.620Z,100333.61
2023-03-29T23:44:11.519Z,100330.41
2023-03-29T23:48:04.508Z,100327.70
2023-03-29T23:51:28.458Z,100317.38
